Time;durP1;ratioP1;P1;durP2;ratioP2;P2;SDS_P1;SDS_P2;PMS_P1;PMS_P2;Temp;Humidity;BMP_temperature;BMP_pressure;BME280_temperature;BME280_humidity;BME280_pressure;Samples;Min_cycle;Max_cycle;Signal;HPM_P1;HPM_P2
2022/07/09 00:01:55;;;;;;;7.23;4.73;;;19.40;74.50;;;22.20;54.37;102607.47;5094428;28;20200;-63
2022/07/09 00:04:23;;;;;;;11.30;4.90;;;19.40;74.70;;;22.18;54.46;102612.19;5095170;28;20295;-65
2022/07/09 00:06:51;;;;;;;10.70;5.57;;;19.40;74.90;;;22.13;54.68;102606.63;5095366;28;20219;-64
2022/07/09 00:09:19;;;;;;;6.20;5.17;;;19.30;74.90;;;22.08;54.88;102606.44;5095072;28;20184;-66
2022/07/09 00:11:46;;;;;;;5.93;4.87;;;19.30;75.00;;;22.04;54.89;102607.84;5093903;28;20235;-65
2022/07/09 00:14:13;;;;;;;8.00;4.90;;;19.20;75.00;;;21.99;55.12;102613.00;5095719;28;20185;-64
2022/07/09 00:16:41;;;;;;;8.33;4.80;;;19.20;75.20;;;21.94;54.59;102610.91;5094622;28;20208;-65
2022/07/09 00:19:08;;;;;;;6.00;4.77;;;19.10;75.30;;;21.90;54.97;102611.53;5094375;28;20276;-64
2022/07/09 00:21:36;;;;;;;7.23;5.13;;;19.10;75.30;;;21.88;55.52;102605.56;5094479;28;20204;-66
2022/07/09 00:24:05;;;;;;;7.77;5.50;;;19.10;75.80;;;21.89;55.22;102602.69;5095242;28;20234;-65
2022/07/09 00:26:33;;;;;;;7.53;4.97;;;19.10;75.80;;;21.93;55.22;102601.25;5094684;28;20195;-63
2022/07/09 00:29:00;;;;;;;8.47;4.93;;;19.10;75.80;;;21.97;55.25;102596.28;5095721;28;20283;-65
2022/07/09 00:31:27;;;;;;;9.80;6.23;;;19.10;75.80;;;22.01;55.22;102600.22;5094208;28;20248;-66
2022/07/09 00:33:55;;;;;;;7.83;5.40;;;19.10;75.60;;;22.01;54.91;102597.53;5095370;28;20528;-65
2022/07/09 00:36:22;;;;;;;8.20;4.80;;;19.10;75.50;;;22.01;55.18;102602.91;5095044;28;20193;-65
2022/07/09 00:38:49;;;;;;;8.83;4.73;;;19.10;75.70;;;22.02;55.48;102600.00;5094396;28;20188;-63
2022/07/09 00:41:18;;;;;;;5.87;3.60;;;19.20;75.80;;;22.05;55.06;102593.41;5094558;28;20208;-66
2022/07/09 00:43:48;;;;;;;10.17;5.30;;;19.20;75.80;;;22.10;55.21;102597.16;5094821;28;20192;-64
2022/07/09 00:46:16;;;;;;;8.73;4.80;;;19.20;75.40;;;22.11;54.75;102597.94;5095283;28;20197;-64
2022/07/09 00:48:43;;;;;;;7.40;4.43;;;19.20;75.20;;;22.08;55.06;102593.81;5094164;28;20197;-63
2022/07/09 00:51:14;;;;;;;5.73;3.80;;;19.20;75.40;;;22.09;54.85;102594.66;5093731;28;20580;-64
2022/07/09 00:53:42;;;;;;;8.80;4.83;;;19.20;75.30;;;22.07;54.82;102585.97;5094271;28;20192;-64
2022/07/09 00:56:12;;;;;;;7.40;5.27;;;19.20;75.20;;;22.03;54.65;102590.13;5094496;28;20189;-65
2022/07/09 00:58:42;;;;;;;6.20;3.87;;;19.10;75.10;;;22.00;54.50;102587.84;5094572;28;20188;-64
2022/07/09 01:01:10;;;;;;;8.17;4.70;;;19.10;75.20;;;21.98;54.60;102587.22;5094289;28;20618;-64
2022/07/09 01:03:37;;;;;;;6.90;4.13;;;19.10;75.30;;;21.95;54.54;102583.09;5109926;28;20188;-65
2022/07/09 01:06:05;;;;;;;4.43;3.57;;;19.00;76.20;;;21.97;55.28;102585.56;5114875;28;20183;-64
2022/07/09 01:08:32;;;;;;;5.90;4.10;;;19.10;76.30;;;21.98;54.60;102589.91;5114804;28;20188;-65
2022/07/09 01:11:01;;;;;;;6.80;3.93;;;19.10;75.70;;;21.97;55.01;102588.22;5113698;28;20756;-64
2022/07/09 01:13:29;;;;;;;7.40;4.23;;;19.00;75.50;;;21.96;54.76;102590.13;5114640;28;20341;-64
2022/07/09 01:15:57;;;;;;;7.00;4.37;;;19.00;75.40;;;21.95;54.86;102582.25;5114372;28;20199;-66
2022/07/09 01:18:25;;;;;;;12.37;5.03;;;19.00;75.50;;;21.93;55.00;102578.94;5112385;28;20199;-63
2022/07/09 01:20:54;;;;;;;9.30;4.10;;;19.00;75.50;;;21.89;54.62;102585.75;5113485;28;20191;-64
2022/07/09 01:23:21;;;;;;;5.93;4.27;;;19.00;76.30;;;21.84;54.63;102574.78;5114281;28;20187;-63
2022/07/09 01:25:48;;;;;;;6.33;4.10;;;19.00;75.60;;;21.77;55.01;102579.31;5115341;28;20199;-65
2022/07/09 01:28:16;;;;;;;6.00;4.43;;;19.00;75.70;;;21.69;54.94;102574.13;5114202;28;20200;-65
2022/07/09 01:30:43;;;;;;;7.33;4.90;;;18.90;75.60;;;21.59;55.13;102569.97;5114984;28;20191;-65
2022/07/09 01:33:11;;;;;;;5.70;4.03;;;18.80;75.70;;;21.52;55.23;102574.50;5115100;28;20195;-64
2022/07/09 01:35:40;;;;;;;10.73;4.47;;;18.70;75.70;;;21.44;55.67;102568.50;5112464;28;20194;-64
2022/07/09 01:38:08;;;;;;;10.10;4.10;;;18.70;75.90;;;21.39;55.82;102561.06;5114271;28;20191;-64
2022/07/09 01:40:36;;;;;;;5.90;4.27;;;18.70;76.30;;;21.36;55.65;102561.47;5114059;28;20191;-64
2022/07/09 01:43:04;;;;;;;5.63;4.83;;;18.60;76.30;;;21.31;56.33;102555.88;5115168;28;20267;-64
2022/07/09 01:45:31;;;;;;;7.27;4.23;;;18.60;76.70;;;21.28;55.83;102548.22;5114413;28;20184;-64
2022/07/09 01:47:59;;;;;;;6.30;4.60;;;18.50;76.70;;;21.28;56.63;102552.75;5115516;28;20267;-64
2022/07/09 01:50:26;;;;;;;6.77;5.03;;;18.50;77.00;;;21.28;56.26;102542.88;5117302;28;20188;-64
2022/07/09 01:52:54;;;;;;;7.57;5.07;;;18.50;77.40;;;21.30;56.40;102540.81;5099801;28;20224;-65
2022/07/09 01:55:23;;;;;;;8.57;4.93;;;18.50;77.50;;;21.31;56.10;102547.00;5092880;28;20242;-64
2022/07/09 01:57:50;;;;;;;7.17;4.53;;;18.40;77.60;;;21.33;56.20;102543.09;5093077;28;20223;-64
2022/07/09 02:00:19;;;;;;;8.30;5.27;;;18.50;77.90;;;21.35;56.37;102543.72;5093336;28;20188;-65
2022/07/09 02:02:46;;;;;;;8.07;3.60;;;18.40;78.00;;;21.36;56.83;102540.03;5093584;28;20643;-65
2022/07/09 02:05:14;;;;;;;7.73;4.83;;;18.50;78.00;;;21.39;56.97;102538.81;5092709;28;20194;-65
2022/07/09 02:07:41;;;;;;;8.10;5.03;;;18.50;77.90;;;21.42;56.30;102533.00;5093142;28;20196;-65
2022/07/09 02:10:09;;;;;;;9.13;4.83;;;18.50;78.00;;;21.41;56.28;102526.84;5113336;28;20202;-65
2022/07/09 02:12:38;;;;;;;7.93;4.73;;;18.50;78.00;;;21.40;56.71;102530.53;5112803;28;20212;-65
2022/07/09 02:15:08;;;;;;;8.70;5.47;;;18.50;77.90;;;21.38;56.45;102521.06;5113264;28;20195;-65
2022/07/09 02:17:35;;;;;;;5.10;4.33;;;18.50;77.90;;;21.37;56.79;102517.53;5113602;28;20199;-65
2022/07/09 02:20:04;;;;;;;7.17;4.63;;;18.50;78.00;;;21.40;56.95;102510.97;5113700;28;20258;-65
2022/07/09 02:22:31;;;;;;;7.80;5.10;;;18.50;77.90;;;21.41;56.49;102515.31;5112654;28;20214;-65
2022/07/09 02:24:58;;;;;;;6.47;4.60;;;18.60;78.10;;;21.40;56.75;102503.75;5103374;28;20612;-65
2022/07/09 02:27:26;;;;;;;7.50;5.00;;;18.50;77.90;;;21.40;56.81;102519.81;5092785;28;20200;-65
2022/07/09 02:29:54;;;;;;;6.43;4.37;;;18.60;78.10;;;21.39;56.65;102512.84;5092822;28;20564;-65
2022/07/09 02:32:22;;;;;;;7.30;4.37;;;18.50;78.20;;;21.40;56.54;102509.13;5092492;28;20673;-65
2022/07/09 02:34:50;;;;;;;8.53;5.07;;;18.60;78.20;;;21.43;57.15;102506.03;5092462;28;20193;-65
2022/07/09 02:37:17;;;;;;;6.33;4.87;;;18.60;78.50;;;21.43;56.95;102507.88;5096368;28;20653;-65
2022/07/09 02:39:44;;;;;;;5.63;4.30;;;18.60;78.40;;;21.39;56.72;102507.47;5096114;28;20193;-65
2022/07/09 02:42:12;;;;;;;8.97;4.40;;;18.60;78.30;;;21.33;56.77;102504.75;5096996;28;20220;-65
2022/07/09 02:44:43;;;;;;;6.60;4.53;;;18.60;78.20;;;21.28;57.18;102508.03;5096159;28;20196;-65
2022/07/09 02:47:12;;;;;;;5.73;4.80;;;18.50;78.10;;;21.25;57.10;102507.63;5096342;28;20642;-65
2022/07/09 02:49:39;;;;;;;9.17;4.97;;;18.50;78.40;;;21.21;57.52;102499.16;5095872;28;20193;-66
2022/07/09 02:52:07;;;;;;;7.27;3.80;;;18.50;78.60;;;21.23;57.62;102494.41;5096013;28;20212;-65
2022/07/09 02:54:34;;;;;;;7.97;4.33;;;18.40;78.70;;;21.25;57.14;102489.69;5096126;28;20196;-65
2022/07/09 02:57:02;;;;;;;6.43;3.80;;;18.40;78.90;;;21.29;57.52;102479.41;5096702;28;20188;-65
2022/07/09 02:59:29;;;;;;;9.00;4.53;;;18.40;78.90;;;21.32;57.72;102497.75;5095561;28;20221;-66
2022/07/09 03:01:56;;;;;;;7.30;4.23;;;18.50;79.20;;;21.32;57.35;102495.88;5095395;28;20208;-65
2022/07/09 03:04:25;;;;;;;8.10;5.10;;;18.50;79.10;;;21.32;57.46;102487.03;5096260;28;20188;-64
2022/07/09 03:06:52;;;;;;;7.77;4.97;;;18.50;79.00;;;21.31;57.52;102480.84;5095573;28;20193;-67
2022/07/09 03:09:20;;;;;;;8.43;5.03;;;18.50;79.00;;;21.31;56.96;102482.69;5095844;28;20199;-65
2022/07/09 03:11:47;;;;;;;7.67;4.40;;;18.50;79.10;;;21.30;57.60;102487.22;5095271;28;20582;-65
2022/07/09 03:14:15;;;;;;;7.07;4.60;;;18.40;79.00;;;21.29;57.16;102488.28;5096881;28;20188;-65
2022/07/09 03:16:42;;;;;;;5.33;4.73;;;18.50;79.40;;;21.27;57.13;102482.31;5096082;28;20188;-65
2022/07/09 03:19:09;;;;;;;9.63;5.47;;;18.50;79.30;;;21.28;57.18;102477.75;5095820;28;20628;-65
2022/07/09 03:21:38;;;;;;;8.23;4.97;;;18.40;80.00;;;21.27;57.75;102482.31;5095410;28;20215;-65
2022/07/09 03:24:08;;;;;;;7.30;4.33;;;18.40;79.40;;;21.30;57.68;102465.78;5096008;28;20207;-65
2022/07/09 03:26:35;;;;;;;6.13;4.70;;;18.40;79.50;;;21.30;57.24;102465.00;5095311;28;20674;-64
2022/07/09 03:29:03;;;;;;;5.97;4.50;;;18.40;79.50;;;21.28;57.78;102472.38;5095991;28;20200;-65
2022/07/09 03:31:30;;;;;;;5.80;4.70;;;18.40;79.40;;;21.28;57.51;102475.06;5096221;28;20584;-65
2022/07/09 03:33:58;;;;;;;8.83;4.60;;;18.40;79.60;;;21.29;57.76;102466.84;5095407;28;20195;-65
2022/07/09 03:36:25;;;;;;;6.57;4.90;;;18.40;79.60;;;21.30;57.68;102465.00;5095331;28;20268;-65
2022/07/09 03:38:54;;;;;;;7.63;5.37;;;18.50;79.70;;;21.28;57.76;102459.81;5095534;28;20188;-65
2022/07/09 03:41:21;;;;;;;5.57;4.77;;;18.40;79.60;;;21.25;57.85;102468.25;5095338;28;20208;-65
2022/07/09 03:43:49;;;;;;;6.10;5.17;;;18.40;79.50;;;21.23;57.36;102464.97;5095159;28;20185;-65
2022/07/09 03:46:16;;;;;;;9.57;5.60;;;18.40;79.60;;;21.20;57.63;102473.41;5098791;28;20191;-66
2022/07/09 03:48:44;;;;;;;7.03;4.60;;;18.40;79.60;;;21.17;58.10;102465.78;5095261;28;20223;-65
2022/07/09 03:51:11;;;;;;;7.60;5.37;;;18.40;79.70;;;21.14;57.77;102466.16;5094409;28;20223;-65
2022/07/09 03:53:38;;;;;;;8.87;5.57;;;18.40;79.80;;;;;;5094926;28;20212;-65
2022/07/09 03:56:07;;;;;;;9.37;5.80;;;18.40;79.70;;;21.08;57.81;102455.44;5094832;28;20200;-65
2022/07/09 03:58:35;;;;;;;7.67;5.23;;;18.30;80.00;;;21.07;57.90;102465.31;5094688;28;20201;-65
2022/07/09 04:01:04;;;;;;;11.20;5.77;;;18.30;80.00;;;21.10;58.28;102464.94;5094931;28;20213;-65
2022/07/09 04:03:31;;;;;;;14.30;6.53;;;18.30;80.40;;;21.11;58.67;102466.56;5096207;28;20256;-65
2022/07/09 04:05:59;;;;;;;8.27;5.33;;;18.30;80.40;;;21.16;58.25;102466.78;5094808;28;20196;-65
2022/07/09 04:08:26;;;;;;;7.07;5.93;;;18.30;80.60;;;21.21;58.74;102475.06;5094869;28;20192;-66
2022/07/09 04:10:53;;;;;;;8.53;6.53;;;18.40;81.00;;;21.29;58.82;102476.72;5094637;28;20199;-65
2022/07/09 04:13:22;;;;;;;6.80;5.40;;;18.40;81.00;;;21.33;58.58;102470.75;5094746;28;20216;-66
2022/07/09 04:15:49;;;;;;;6.30;5.53;;;18.50;80.80;;;21.36;57.94;102472.22;5094651;28;20191;-65
2022/07/09 04:18:17;;;;;;;6.27;5.43;;;18.50;80.70;;;21.37;58.30;102477.34;5093567;28;20196;-67
2022/07/09 04:20:44;;;;;;;7.73;6.03;;;18.50;80.60;;;21.38;58.30;102472.81;5107136;28;20195;-65
2022/07/09 04:23:15;;;;;;;9.87;6.60;;;18.50;80.60;;;21.38;58.21;102462.09;5094723;28;20191;-65
2022/07/09 04:25:42;;;;;;;9.33;5.93;;;18.50;80.60;;;21.37;58.00;102455.91;5095003;28;20532;-65
2022/07/09 04:28:09;;;;;;;10.37;6.80;;;18.50;80.50;;;21.37;57.89;102458.59;5094403;28;20645;-65
2022/07/09 04:30:38;;;;;;;9.67;6.17;;;18.50;80.40;;;21.37;58.28;102458.59;5094195;28;20620;-65
2022/07/09 04:33:06;;;;;;;10.67;6.57;;;18.50;80.60;;;21.35;58.46;102449.94;5094199;28;20579;-64
2022/07/09 04:35:35;;;;;;;6.27;5.33;;;18.50;80.70;;;21.38;58.42;102452.22;5096746;28;20207;-65
2022/07/09 04:38:03;;;;;;;8.33;6.80;;;18.50;80.80;;;21.42;58.37;102453.47;5113786;28;20199;-65
2022/07/09 04:40:30;;;;;;;9.90;7.10;;;18.60;81.00;;;21.42;58.49;102448.09;5113980;28;20191;-65
2022/07/09 04:42:57;;;;;;;10.67;6.40;;;18.60;81.00;;;21.47;58.38;102444.81;5114252;28;20217;-65
2022/07/09 04:45:25;;;;;;;6.90;5.97;;;18.60;81.30;;;21.54;58.32;102451.00;5114125;28;20546;-65
2022/07/09 04:47:53;;;;;;;9.47;7.23;;;18.60;81.20;;;21.59;58.04;102449.38;5114161;28;20192;-65
2022/07/09 04:50:21;;;;;;;7.77;7.00;;;18.60;81.30;;;21.66;58.15;102453.88;5114467;28;20196;-66
2022/07/09 04:52:48;;;;;;;13.20;6.87;;;18.70;81.40;;;21.71;58.15;102456.78;5105251;28;20303;-65
2022/07/09 04:55:16;;;;;;;11.30;7.43;;;18.70;81.30;;;21.76;58.11;102457.00;5093751;28;20267;-66
2022/07/09 04:57:45;;;;;;;7.90;6.40;;;18.80;81.30;;;21.81;58.23;102454.53;5093369;28;20196;-66
2022/07/09 05:00:15;;;;;;;11.20;7.37;;;18.80;81.20;;;21.84;58.26;102452.31;5094067;28;20188;-64
2022/07/09 05:02:44;;;;;;;7.57;6.43;;;18.80;81.00;;;21.88;58.01;102450.84;5093750;28;20552;-64
2022/07/09 05:05:13;;;;;;;7.97;6.73;;;18.90;81.10;;;21.94;57.85;102451.88;5092850;28;20192;-64
2022/07/09 05:07:44;;;;;;;8.73;6.53;;;18.90;80.90;;;21.97;58.01;102446.09;5093728;28;20628;-65
2022/07/09 05:10:11;;;;;;;8.97;6.37;;;19.00;80.90;;;21.99;57.66;102452.91;5093718;28;20196;-65
2022/07/09 05:12:39;;;;;;;9.10;6.73;;;19.00;80.70;;;22.01;57.99;102453.50;5093500;28;20220;-65
2022/07/09 05:15:09;;;;;;;9.10;7.10;;;19.00;80.70;;;22.04;57.72;102452.28;5093954;28;20560;-64
2022/07/09 05:17:37;;;;;;;9.80;6.53;;;19.00;80.60;;;22.06;57.26;102450.22;5093581;28;20203;-64
2022/07/09 05:20:07;;;;;;;6.47;5.87;;;19.10;80.60;;;22.07;57.58;102457.22;5093641;28;20193;-65
2022/07/09 05:22:37;;;;;;;7.03;6.10;;;19.10;80.60;;;22.12;57.56;102454.75;5093474;28;20212;-66
2022/07/09 05:25:06;;;;;;;11.20;6.67;;;19.10;80.60;;;22.16;57.65;102451.44;5098715;28;20192;-66
2022/07/09 05:27:42;;;;;;;7.97;6.30;;;19.20;80.60;;;22.16;57.31;102455.97;5113414;28;20291;-65
2022/07/09 05:30:11;;;;;;;10.53;6.63;;;19.20;80.50;;;22.17;57.52;102461.16;5114006;28;20183;-65
2022/07/09 05:32:45;;;;;;;8.77;7.03;;;19.20;80.40;;;22.17;57.59;102458.47;5113159;28;20626;-65
2022/07/09 05:35:12;;;;;;;8.90;6.20;;;19.20;80.20;;;22.17;57.42;102455.78;5113500;28;20554;-65
2022/07/09 05:37:44;;;;;;;8.73;6.40;;;19.30;80.40;;;22.17;57.18;102457.63;5113989;28;20259;-65
2022/07/09 05:40:13;;;;;;;7.27;5.57;;;19.30;80.50;;;22.21;57.61;102450.81;5113520;28;20194;-65
2022/07/09 05:42:40;;;;;;;9.40;7.20;;;19.30;80.60;;;22.27;57.52;102447.31;5098733;28;20583;-65
2022/07/09 05:45:09;;;;;;;10.03;6.37;;;19.30;80.70;;;22.32;57.16;102444.81;5092841;28;20192;-65
2022/07/09 05:47:36;;;;;;;8.23;5.93;;;19.30;80.70;;;22.36;57.38;102438.00;5092850;28;20188;-65
2022/07/09 05:50:05;;;;;;;8.93;6.73;;;19.40;80.70;;;22.41;57.35;102438.19;5091915;28;20282;-65
2022/07/09 05:52:32;;;;;;;9.10;6.07;;;19.40;80.80;;;22.43;57.77;102437.97;5092697;28;20220;-65
2022/07/09 05:55:03;;;;;;;8.27;6.50;;;19.40;80.60;;;22.44;57.12;102437.75;5092305;28;20191;-65
2022/07/09 05:57:34;;;;;;;7.77;6.90;;;19.50;80.70;;;22.44;57.45;102432.38;5094409;28;20206;-65
2022/07/09 06:00:07;;;;;;;8.67;6.33;;;19.50;80.70;;;22.45;57.72;102428.66;5093521;28;20598;-65
2022/07/09 06:02:34;;;;;;;10.97;6.47;;;19.50;80.60;;;22.52;57.37;102423.28;5092823;28;20227;-65
2022/07/09 06:05:02;;;;;;;8.60;6.13;;;19.50;80.70;;;22.56;57.74;102436.06;5092771;28;20185;-65
2022/07/09 06:07:29;;;;;;;8.87;6.20;;;19.60;80.80;;;22.59;57.78;102446.38;5093128;28;20193;-65
2022/07/09 06:09:56;;;;;;;8.77;5.77;;;19.60;80.70;;;22.63;57.32;102442.25;5093021;28;20189;-65
2022/07/09 06:12:25;;;;;;;10.73;6.17;;;19.60;80.80;;;22.68;57.25;102449.66;5096394;28;20685;-65
2022/07/09 06:14:53;;;;;;;7.37;5.90;;;19.60;80.80;;;22.73;57.38;102448.00;5104895;28;20188;-65
2022/07/09 06:17:20;;;;;;;10.80;6.50;;;19.70;81.70;;;22.78;57.13;102450.88;5116909;27;20556;-65
2022/07/09 06:19:47;;;;;;;14.57;6.60;;;19.70;80.90;;;22.82;57.40;102446.72;5117171;28;20184;-65
2022/07/09 06:22:15;;;;;;;8.33;5.97;;;19.80;80.90;;;22.87;57.11;102454.13;5116668;28;20589;-66
2022/07/09 06:24:42;;;;;;;8.07;6.13;;;19.80;80.80;;;22.90;57.14;102451.88;5116737;27;20199;-65
2022/07/09 06:27:10;;;;;;;7.40;5.47;;;19.80;80.70;;;22.97;57.09;102449.13;5116886;28;20199;-65
2022/07/09 06:29:39;;;;;;;6.77;4.67;;;19.90;80.70;;;23.07;57.08;102460.25;5115650;28;20509;-65
2022/07/09 06:32:08;;;;;;;7.47;5.50;;;20.00;81.50;;;23.16;56.82;102458.13;5103643;28;20212;-65
2022/07/09 06:34:35;;;;;;;5.13;4.63;;;20.00;80.30;;;23.20;56.56;102456.69;5096213;28;20212;-65
2022/07/09 06:37:03;;;;;;;9.23;5.77;;;20.10;79.90;;;23.23;56.46;102453.53;5096434;28;20218;-65
2022/07/09 06:39:46;;;;;;;6.37;5.17;;;20.10;79.60;;;23.28;56.18;102451.03;5095101;28;20197;-65
2022/07/09 06:42:16;;;;;;;9.37;5.50;;;20.20;79.50;;;23.30;56.08;102444.41;5096090;28;20227;-64
2022/07/09 06:44:45;;;;;;;6.73;4.60;;;20.20;79.00;;;23.34;55.94;102444.81;5096657;28;20192;-65
2022/07/09 06:47:12;;;;;;;6.07;4.83;;;20.30;78.90;;;23.37;55.90;102439.84;5098114;28;20528;-66
2022/07/09 06:49:40;;;;;;;5.77;4.63;;;20.30;78.80;;;23.36;55.62;102453.50;5096083;28;20187;-65
2022/07/09 06:52:08;;;;;;;5.37;4.87;;;20.30;78.70;;;23.34;55.76;102450.19;5114428;28;20208;-66
2022/07/09 06:54:36;;;;;;;7.53;5.20;;;20.30;78.50;;;23.33;55.76;102438.59;5116358;28;20256;-65
2022/07/09 06:57:04;;;;;;;6.17;5.07;;;20.30;78.60;;;23.34;55.80;102444.81;5116322;28;20195;-66
2022/07/09 06:59:33;;;;;;;7.17;5.27;;;20.30;78.60;;;23.36;55.92;102453.50;5116966;27;20199;-65
2022/07/09 07:02:02;;;;;;;7.97;5.10;;;20.30;78.60;;;23.34;55.75;102445.59;5116741;28;20204;-65
2022/07/09 07:04:29;;;;;;;7.10;5.17;;;20.30;78.50;;;23.40;55.94;102438.56;5108186;28;20196;-66
2022/07/09 07:06:57;;;;;;;6.60;4.80;;;20.40;78.70;;;23.47;55.60;102428.59;5095351;28;20287;-65
2022/07/09 07:09:24;;;;;;;6.27;5.27;;;20.40;78.70;;;23.50;55.79;102439.75;5096003;28;20547;-65
2022/07/09 07:11:52;;;;;;;6.73;4.90;;;20.40;78.50;;;23.53;55.33;102443.88;5094861;28;20200;-64
2022/07/09 07:14:19;;;;;;;7.23;4.60;;;20.40;78.30;;;23.55;55.51;102439.94;5095326;28;20580;-65
2022/07/09 07:16:46;;;;;;;7.23;5.13;;;20.50;78.20;;;23.61;55.54;102432.84;5095441;28;20195;-65
2022/07/09 07:19:16;;;;;;;5.10;4.20;;;20.50;78.10;;;23.65;55.29;102434.06;5096001;28;20188;-65
2022/07/09 07:21:44;;;;;;;7.03;4.00;;;20.60;78.20;;;23.71;55.26;102435.88;5110687;28;20211;-65
2022/07/09 07:24:11;;;;;;;8.03;4.30;;;20.60;78.00;;;23.76;55.07;102427.97;5116035;28;20188;-65
2022/07/09 07:26:39;;;;;;;7.37;4.37;;;20.70;77.80;;;23.79;54.77;102416.78;5115934;28;20206;-65
2022/07/09 07:29:06;;;;;;;5.57;3.60;;;20.70;77.70;;;23.85;54.83;102428.50;5115489;28;20202;-65
2022/07/09 07:31:39;;;;;;;5.60;4.13;;;20.70;77.60;;;23.95;54.68;102432.34;5115990;28;20559;-65
2022/07/09 07:34:06;;;;;;;6.10;4.03;;;20.80;77.60;;;24.06;54.43;102431.63;5115233;28;20269;-66
2022/07/09 07:36:35;;;;;;;6.90;4.33;;;20.90;77.50;;;24.19;54.20;102433.38;5113797;28;20183;-67
2022/07/09 07:39:03;;;;;;;6.93;4.20;;;21.00;77.40;;;24.31;54.02;102426.22;5115778;28;20265;-65
2022/07/09 07:41:30;;;;;;;6.67;4.03;;;21.10;77.20;;;24.39;54.02;102422.41;5115000;28;20203;-65
2022/07/09 07:43:58;;;;;;;6.00;3.63;;;21.10;76.60;;;24.47;53.12;102414.00;5115531;28;20238;-66
2022/07/09 07:46:25;;;;;;;5.67;3.63;;;21.20;76.40;;;24.55;53.10;102411.03;5114835;28;20688;-64
2022/07/09 07:48:53;;;;;;;5.50;3.70;;;21.30;75.90;;;24.59;53.39;102406.81;5114608;28;20202;-65
2022/07/09 07:51:20;;;;;;;5.13;4.03;;;21.30;75.70;;;24.64;52.60;102405.09;5114824;28;20679;-64
2022/07/09 07:53:49;;;;;;;3.67;3.10;;;21.40;75.20;;;24.65;52.46;102408.63;5113546;28;20622;-64
2022/07/09 07:56:17;;;;;;;5.30;2.97;;;21.40;74.80;;;24.65;52.87;102408.63;5115765;28;20651;-65
2022/07/09 07:58:44;;;;;;;6.03;3.20;;;21.50;74.70;;;24.65;52.60;102403.25;5114991;28;20188;-65
2022/07/09 08:01:11;;;;;;;3.60;3.30;;;21.50;74.50;;;24.69;52.37;102407.13;5114687;28;20208;-65
2022/07/09 08:03:39;;;;;;;6.13;3.17;;;21.60;74.50;;;24.75;52.32;102395.41;5115452;28;20184;-65
2022/07/09 08:06:07;;;;;;;4.40;3.20;;;21.60;74.30;;;24.78;52.27;102406.59;5114962;28;20555;-65
2022/07/09 08:08:35;;;;;;;4.57;3.03;;;21.60;73.90;;;24.79;51.91;102396.66;5107182;28;20200;-65
2022/07/09 08:11:05;;;;;;;5.40;3.13;;;21.70;73.70;;;24.81;52.07;102390.00;5094241;28;20213;-65
2022/07/09 08:13:35;;;;;;;5.27;2.97;;;21.70;73.50;;;24.84;51.43;102404.88;5094069;28;20201;-64
2022/07/09 08:16:03;;;;;;;4.43;3.53;;;21.70;73.10;;;24.86;51.23;102400.09;5094396;28;20551;-65
2022/07/09 08:18:31;;;;;;;5.07;3.53;;;21.70;73.10;;;24.91;51.62;102399.41;5094084;28;20722;-65
2022/07/09 08:20:59;;;;;;;5.03;2.90;;;21.80;73.00;;;24.93;51.14;102395.44;5093936;28;20196;-65
2022/07/09 08:23:26;;;;;;;3.47;2.83;;;21.80;72.80;;;24.98;50.92;102400.94;5108039;28;20191;-65
2022/07/09 08:25:53;;;;;;;4.70;3.20;;;21.80;72.50;;;25.01;51.47;102400.47;5113099;28;20208;-65
2022/07/09 08:28:22;;;;;;;6.23;2.90;;;21.90;72.60;;;25.06;51.32;102405.16;5114563;28;20513;-65
2022/07/09 08:30:50;;;;;;;6.17;3.27;;;21.90;72.40;;;25.14;50.19;102394.91;5114427;28;20653;-65
2022/07/09 08:33:17;;;;;;;2.90;2.60;;;21.90;71.70;;;25.34;50.75;102392.72;5114050;28;20212;-65
2022/07/09 08:35:45;;;;;;;3.77;2.60;;;22.00;72.00;;;25.66;50.09;102395.13;5114682;28;20192;-65
2022/07/09 08:38:12;;;;;;;3.07;2.50;;;22.10;71.70;;;26.09;49.25;102392.91;5112299;27;20211;-65
2022/07/09 08:40:40;;;;;;;2.73;2.53;;;22.30;71.60;;;26.32;47.87;102387.47;5114079;28;20197;-64
2022/07/09 08:43:10;;;;;;;5.47;2.40;;;22.60;70.00;;;26.63;47.39;102389.72;5114519;28;20188;-65
2022/07/09 08:45:43;;;;;;;3.97;2.33;;;22.80;70.20;;;27.08;46.66;102394.38;5114678;28;20176;-66
2022/07/09 08:48:10;;;;;;;2.63;1.80;;;23.00;68.70;;;27.30;46.55;102389.91;5114589;28;20270;-65
2022/07/09 08:50:40;;;;;;;2.57;2.23;;;23.30;68.60;;;27.48;45.56;102387.78;5113774;28;20192;-65
2022/07/09 08:53:10;;;;;;;3.57;2.00;;;23.60;67.00;;;27.45;44.62;102393.72;5113905;28;20183;-66
2022/07/09 08:55:38;;;;;;;4.00;2.30;;;23.70;65.50;;;27.29;45.08;102388.28;5112085;28;20188;-65
2022/07/09 08:58:06;;;;;;;4.97;2.43;;;23.80;65.20;;;27.65;44.93;102387.00;5113497;28;20652;-65
2022/07/09 09:00:33;;;;;;;1.80;1.63;;;23.80;65.20;;;28.29;43.51;102382.78;5113360;28;20196;-66
2022/07/09 09:03:02;;;;;;;2.50;2.03;;;24.10;65.00;;;29.19;42.05;102372.13;5112975;28;20207;-64
2022/07/09 09:05:30;;;;;;;3.03;1.87;;;24.40;64.00;;;30.06;40.00;102383.34;5113621;28;20572;-63
2022/07/09 09:07:57;;;;;;;2.67;1.50;;;24.90;62.80;;;30.57;37.96;102379.75;5114137;28;20631;-64
2022/07/09 09:10:27;;;;;;;2.03;1.67;;;25.40;59.20;;;30.43;37.13;102373.19;5113362;28;20655;-63
2022/07/09 09:12:58;;;;;;;2.70;2.30;;;25.60;57.00;;;30.26;36.97;102377.19;5112581;28;20255;-63
2022/07/09 09:15:26;;;;;;;2.93;2.00;;;25.80;55.80;;;30.12;37.83;102383.09;5114038;28;20291;-64
2022/07/09 09:17:54;;;;;;;2.73;1.50;;;25.90;55.90;;;30.02;37.90;102374.09;5113568;28;20198;-66
2022/07/09 09:20:24;;;;;;;3.00;2.10;;;25.90;55.60;;;29.98;37.48;102367.53;5112997;28;20184;-65
2022/07/09 09:22:59;;;;;;;3.10;1.90;;;26.00;55.50;;;30.26;37.19;102361.69;5114177;28;20211;-65
2022/07/09 09:25:27;;;;;;;2.20;2.00;;;26.10;55.50;;;30.33;36.53;102367.72;5114240;28;20267;-65
2022/07/09 09:27:56;;;;;;;5.33;2.10;;;26.20;54.10;;;30.08;36.86;102359.41;5111410;28;20230;-65
2022/07/09 09:30:26;;;;;;;2.43;1.90;;;26.20;53.90;;;29.91;37.52;102354.19;5092841;28;20184;-66
2022/07/09 09:32:57;;;;;;;2.13;1.70;;;26.10;54.10;;;30.66;35.72;102361.84;5092911;28;20216;-65
2022/07/09 09:35:29;;;;;;;1.20;1.10;;;26.20;53.60;;;31.27;34.96;102345.56;5093254;28;20288;-65
2022/07/09 09:37:57;;;;;;;2.23;1.60;;;26.40;53.00;;;32.29;32.82;102346.97;5093808;28;20290;-65
2022/07/09 09:40:26;;;;;;;2.30;1.53;;;26.80;52.50;;;33.30;31.79;102345.22;5092890;28;20246;-66
2022/07/09 09:42:54;;;;;;;2.20;1.30;;;27.30;51.50;;;34.08;30.94;102342.22;5092464;27;20233;-65
2022/07/09 09:45:25;;;;;;;1.97;1.20;;;27.80;51.20;;;34.30;29.91;102345.22;5096363;28;20270;-66
2022/07/09 09:47:53;;;;;;;3.00;2.80;;;28.30;49.20;;;34.25;29.71;102353.47;5096374;28;20245;-65
2022/07/09 09:50:24;;;;;;;3.60;2.23;;;28.70;46.50;;;34.04;29.64;102336.50;5097482;28;20513;-66
2022/07/09 09:52:57;;;;;;;2.67;1.67;;;28.80;45.60;;;33.91;29.63;102344.56;5096946;28;20215;-65
2022/07/09 09:55:24;;;;;;;2.30;1.67;;;28.90;45.80;;;33.90;29.92;102340.22;5097388;28;20212;-65
2022/07/09 09:57:53;;;;;;;3.37;1.70;;;28.90;45.90;;;33.57;30.43;102330.22;5096011;27;20673;-65
2022/07/09 10:00:21;;;;;;;2.13;1.50;;;28.90;45.30;;;33.33;30.34;102325.50;5082732;28;20275;-63
2022/07/09 10:02:50;;;;;;;1.50;1.30;;;28.90;45.10;;;33.13;30.13;102328.44;5112652;28;20216;-64
2022/07/09 10:05:18;;;;;;;3.53;1.70;;;28.80;45.00;;;33.06;30.40;102325.22;5116360;28;20263;-65
2022/07/09 10:07:45;;;;;;;1.40;1.30;;;28.70;44.70;;;32.81;29.93;102325.38;5116864;28;20191;-65
2022/07/09 10:10:20;;;;;;;2.00;1.30;;;28.50;44.80;;;32.36;31.15;102318.28;5117206;28;20214;-65
2022/07/09 10:12:48;;;;;;;1.50;1.40;;;28.30;44.80;;;32.06;30.98;102322.00;5117041;28;20226;-65
2022/07/09 10:15:24;;;;;;;2.60;1.20;;;28.20;44.80;;;31.71;30.97;102329.47;5111523;27;20213;-67
2022/07/09 10:17:53;;;;;;;1.73;1.60;;;28.00;44.60;;;31.37;31.95;102324.63;5103778;28;20632;-65